createdAt,value
2019-04-02T00:02:31.067Z,8.24
2019-04-02T00:04:58.460Z,7.77
2019-04-02T00:07:26.153Z,8.01
2019-04-02T00:09:54.474Z,7.67
2019-04-02T00:12:22.327Z,7.52
2019-04-02T00:14:49.651Z,7.40
2019-04-02T00:17:17.079Z,7.16
2019-04-02T00:19:44.464Z,8.08
2019-04-02T00:22:11.804Z,7.48
2019-04-02T00:24:39.248Z,7.84
2019-04-02T00:27:06.607Z,7.63
2019-04-02T00:29:33.933Z,7.32
2019-04-02T00:32:01.315Z,7.10
2019-04-02T00:34:28.691Z,7.21
2019-04-02T00:36:56.053Z,7.17
2019-04-02T00:39:23.381Z,6.97
2019-04-02T00:41:50.790Z,7.21
2019-04-02T00:44:18.142Z,7.61
2019-04-02T00:46:45.504Z,7.23
2019-04-02T00:49:13.279Z,6.11
2019-04-02T00:51:42.157Z,6.98
2019-04-02T00:54:09.531Z,7.20
2019-04-02T00:56:36.931Z,7.67
2019-04-02T00:59:04.305Z,7.75
2019-04-02T01:01:31.671Z,6.90
2019-04-02T01:03:59.071Z,6.44
2019-04-02T01:06:26.446Z,6.25
2019-04-02T01:08:53.780Z,6.37
2019-04-02T01:11:21.248Z,6.89
2019-04-02T01:13:49.101Z,6.85
2019-04-02T01:16:16.471Z,7.19
2019-04-02T01:18:43.873Z,6.85
2019-04-02T01:21:11.263Z,7.00
2019-04-02T01:23:38.649Z,6.74
2019-04-02T01:26:05.991Z,6.38
2019-04-02T01:28:33.353Z,6.86
2019-04-02T01:31:00.799Z,6.85
2019-04-02T01:33:28.134Z,6.88
2019-04-02T01:35:55.911Z,7.13
2019-04-02T01:38:23.275Z,6.86
2019-04-02T01:40:50.631Z,7.28
2019-04-02T01:43:18.029Z,7.44
2019-04-02T01:45:45.390Z,7.26
2019-04-02T01:48:13.311Z,7.25
2019-04-02T01:50:41.244Z,7.15
2019-04-02T01:53:08.611Z,6.83
2019-04-02T01:55:36.011Z,6.95
2019-04-02T01:58:03.353Z,6.87
2019-04-02T02:00:30.968Z,6.85
2019-04-02T02:02:58.393Z,6.71
2019-04-02T02:05:25.731Z,6.50
2019-04-02T02:07:53.093Z,6.27
2019-04-02T02:10:20.489Z,6.55
2019-04-02T02:12:47.851Z,5.61
2019-04-02T02:15:15.283Z,5.90
2019-04-02T02:17:42.697Z,6.42
2019-04-02T02:20:10.132Z,5.94
2019-04-02T02:22:37.485Z,5.81
2019-04-02T02:25:04.991Z,6.01
2019-04-02T02:27:33.222Z,6.18
2019-04-02T02:30:01.612Z,6.62
2019-04-02T02:32:28.971Z,6.77
2019-04-02T02:34:56.346Z,6.55
2019-04-02T02:37:23.709Z,6.82
2019-04-02T02:39:53.261Z,6.60
2019-04-02T02:42:20.631Z,6.60
2019-04-02T02:44:48.040Z,6.32
2019-04-02T02:47:16.311Z,6.37
2019-04-02T02:49:43.912Z,5.83
2019-04-02T02:52:11.312Z,6.22
2019-04-02T02:54:38.647Z,5.92
2019-04-02T02:57:06.066Z,5.85
2019-04-02T02:59:33.441Z,6.61
2019-04-02T03:02:00.770Z,5.78
2019-04-02T03:04:30.832Z,5.40
2019-04-02T03:06:58.325Z,5.91
2019-04-02T03:09:25.752Z,5.76
2019-04-02T03:11:53.108Z,6.03
2019-04-02T03:14:20.492Z,6.41
2019-04-02T03:16:47.893Z,6.21
2019-04-02T03:19:15.288Z,5.60
2019-04-02T03:21:42.646Z,5.71
2019-04-02T03:24:10.023Z,6.01
2019-04-02T03:26:37.401Z,5.72
2019-04-02T03:29:04.815Z,5.47
2019-04-02T03:31:34.790Z,5.63
2019-04-02T03:34:01.442Z,6.08
2019-04-02T03:36:28.832Z,6.53
2019-04-02T03:38:56.194Z,6.01
2019-04-02T03:41:23.611Z,6.07
2019-04-02T03:43:50.952Z,5.70
2019-04-02T03:46:18.448Z,5.42
2019-04-02T03:48:45.848Z,5.85
2019-04-02T03:51:15.789Z,5.57
2019-04-02T03:53:42.493Z,5.42
2019-04-02T03:56:09.846Z,5.86
2019-04-02T03:58:37.207Z,5.41
2019-04-02T04:01:04.573Z,5.71
2019-04-02T04:03:32.764Z,5.63
2019-04-02T04:06:00.242Z,5.39
2019-04-02T04:08:27.653Z,5.42
2019-04-02T04:11:03.872Z,5.54
2019-04-02T04:13:31.292Z,5.84
2019-04-02T04:15:58.681Z,5.22
2019-04-02T04:18:26.002Z,5.76
2019-04-02T04:20:53.406Z,5.85
2019-04-02T04:23:20.856Z,5.43
2019-04-02T04:25:48.383Z,5.21
2019-04-02T04:28:15.756Z,5.33
2019-04-02T04:30:43.116Z,5.41
2019-04-02T04:33:10.529Z,5.15
2019-04-02T04:35:39.957Z,5.25
2019-04-02T04:38:07.128Z,5.00
2019-04-02T04:40:34.761Z,5.60
2019-04-02T04:43:02.172Z,5.46
2019-04-02T04:45:31.018Z,5.48
2019-04-02T04:47:59.692Z,5.23
2019-04-02T04:50:28.622Z,5.33
2019-04-02T04:52:57.264Z,5.99
2019-04-02T04:55:26.512Z,5.36
2019-04-02T04:57:55.226Z,5.91
2019-04-02T05:00:24.457Z,5.73
2019-04-02T05:03:28.580Z,5.87
2019-04-02T05:05:55.971Z,5.79
2019-04-02T05:08:23.429Z,5.58
2019-04-02T05:10:51.610Z,5.66
2019-04-02T05:13:19.394Z,5.58
2019-04-02T05:15:46.751Z,5.66
2019-04-02T05:18:14.171Z,5.88
2019-04-02T05:20:41.525Z,5.87
2019-04-02T05:23:08.900Z,5.48
2019-04-02T05:25:36.368Z,5.54
2019-04-02T05:28:03.760Z,5.51
2019-04-02T05:30:31.153Z,5.21
2019-04-02T05:33:00.336Z,5.78
2019-04-02T05:35:27.840Z,5.98
2019-04-02T05:37:55.271Z,5.69
2019-04-02T05:40:22.606Z,5.48
2019-04-02T05:42:50.005Z,5.81
2019-04-02T05:45:17.353Z,5.89
2019-04-02T05:47:44.749Z,5.32
2019-04-02T05:50:12.209Z,5.51
2019-04-02T05:52:39.570Z,5.41
2019-04-02T05:55:07.117Z,5.81
2019-04-02T05:57:34.527Z,5.92
2019-04-02T06:00:02.071Z,5.84
2019-04-02T06:02:29.406Z,6.13
2019-04-02T06:04:56.831Z,6.10
2019-04-02T06:07:24.190Z,6.04
2019-04-02T06:09:51.656Z,5.72
2019-04-02T06:12:19.047Z,5.85
2019-04-02T06:14:46.427Z,6.20
2019-04-02T06:17:13.781Z,6.09
2019-04-02T06:19:46.981Z,5.80
2019-04-02T06:22:10.432Z,5.86
2019-04-02T06:24:37.861Z,5.85
2019-04-02T06:27:05.207Z,5.76
2019-04-02T06:29:34.086Z,5.68
2019-04-02T06:32:01.491Z,5.88
2019-04-02T06:34:28.869Z,5.80
2019-04-02T06:36:56.245Z,6.15
2019-04-02T06:39:26.135Z,6.05
2019-04-02T06:41:52.891Z,6.10
2019-04-02T06:44:24.464Z,6.04
2019-04-02T06:46:50.880Z,6.05
2019-04-02T06:49:36.447Z,6.29
2019-04-02T06:52:03.814Z,6.13
2019-04-02T06:54:31.446Z,6.13
2019-04-02T06:56:59.120Z,6.34
2019-04-02T06:59:26.927Z,6.31
2019-04-02T07:01:54.315Z,6.56
2019-04-02T07:04:21.712Z,6.56
2019-04-02T07:06:49.116Z,6.44
2019-04-02T07:09:16.860Z,6.66
2019-04-02T07:11:44.207Z,6.53
2019-04-02T07:14:11.684Z,6.85
2019-04-02T07:16:42.056Z,6.78
2019-04-02T07:19:09.481Z,6.70
2019-04-02T07:21:36.819Z,7.06
2019-04-02T07:24:04.200Z,7.00
2019-04-02T07:26:31.894Z,7.12
2019-04-02T07:28:59.214Z,7.40
2019-04-02T07:31:26.628Z,7.21
2019-04-02T07:33:54.002Z,7.97
2019-04-02T07:36:21.375Z,7.83
2019-04-02T07:38:48.780Z,8.11
2019-04-02T07:41:16.172Z,8.82
2019-04-02T07:43:43.593Z,8.98
2019-04-02T07:46:10.976Z,8.84
2019-04-02T07:48:38.353Z,9.03
2019-04-02T07:51:05.711Z,9.19
2019-04-02T07:53:33.066Z,10.21
2019-04-02T07:56:00.421Z,9.68
2019-04-02T07:58:27.799Z,10.24
2019-04-02T08:00:55.961Z,10.73
2019-04-02T08:03:23.684Z,10.54
2019-04-02T08:05:51.023Z,10.22
2019-04-02T08:08:18.451Z,10.92
2019-04-02T08:10:45.764Z,10.58
2019-04-02T08:13:13.167Z,10.50
2019-04-02T08:15:40.525Z,10.30
2019-04-02T08:18:19.321Z,10.27
2019-04-02T08:20:46.705Z,10.45
2019-04-02T08:23:14.024Z,10.66
2019-04-02T08:25:41.382Z,10.73
2019-04-02T08:28:08.758Z,10.88
2019-04-02T08:30:36.469Z,11.41
2019-04-02T08:33:03.819Z,11.19
2019-04-02T08:35:31.148Z,11.44
2019-04-02T08:37:58.529Z,11.43
2019-04-02T08:40:26.155Z,11.40
2019-04-02T08:42:53.589Z,11.19
2019-04-02T08:45:20.909Z,11.39
2019-04-02T08:47:48.271Z,11.62
2019-04-02T08:50:15.785Z,11.87
2019-04-02T08:52:43.111Z,11.82
2019-04-02T08:55:11.128Z,12.06
2019-04-02T08:57:38.866Z,12.19
2019-04-02T09:00:09.519Z,12.43
2019-04-02T09:02:36.899Z,12.53
2019-04-02T09:05:05.153Z,12.55
2019-04-02T09:07:33.283Z,12.50
2019-04-02T09:10:00.784Z,12.63
2019-04-02T09:12:28.163Z,12.75
2019-04-02T09:14:55.541Z,12.85
2019-04-02T09:17:22.923Z,12.93
2019-04-02T09:19:50.308Z,13.00
2019-04-02T09:22:17.609Z,13.18
2019-04-02T09:24:44.965Z,13.53
2019-04-02T09:27:12.349Z,13.01
2019-04-02T09:29:39.790Z,13.33
2019-04-02T09:32:07.191Z,13.49
2019-04-02T09:34:34.539Z,13.69
2019-04-02T09:37:01.899Z,13.75
2019-04-02T09:39:29.330Z,13.94
2019-04-02T09:41:56.667Z,14.04
2019-04-02T09:44:24.029Z,14.16
2019-04-02T09:46:51.440Z,14.05
2019-04-02T09:49:18.782Z,14.12
2019-04-02T09:51:46.126Z,13.92
2019-04-02T09:54:13.584Z,13.92
2019-04-02T09:56:40.997Z,14.30
2019-04-02T09:59:08.411Z,14.45
2019-04-02T10:01:37.803Z,14.56
2019-04-02T10:04:08.128Z,14.52
2019-04-02T10:06:34.411Z,14.70
2019-04-02T10:09:02.431Z,14.57
2019-04-02T10:11:29.783Z,14.97
2019-04-02T10:13:57.182Z,15.18
2019-04-02T10:16:24.639Z,15.32
2019-04-02T10:18:52.595Z,15.28
2019-04-02T10:21:20.197Z,15.05
2019-04-02T10:23:47.636Z,15.59
2019-04-02T10:26:15.133Z,16.03
2019-04-02T10:28:42.546Z,15.97
2019-04-02T10:31:10.024Z,15.56
2019-04-02T10:33:37.372Z,16.20
2019-04-02T10:36:04.768Z,16.23
2019-04-02T10:38:32.152Z,16.57
2019-04-02T10:40:59.952Z,16.81
2019-04-02T10:43:27.281Z,16.93
2019-04-02T10:45:54.697Z,16.94
2019-04-02T10:48:22.046Z,17.34
2019-04-02T10:50:49.347Z,17.53
2019-04-02T10:53:16.690Z,17.76
2019-04-02T10:55:44.045Z,18.25
2019-04-02T10:58:12.181Z,17.75
2019-04-02T11:00:40.275Z,17.54
2019-04-02T11:03:07.639Z,17.54
2019-04-02T11:05:34.980Z,18.20
2019-04-02T11:08:02.365Z,18.17
2019-04-02T11:10:29.778Z,17.96
2019-04-02T11:12:57.150Z,17.89
2019-04-02T11:15:24.511Z,17.53
2019-04-02T11:17:51.898Z,17.79
2019-04-02T11:20:19.263Z,17.71
2019-04-02T11:22:46.630Z,17.99
2019-04-02T11:25:14.085Z,18.14
2019-04-02T11:27:41.476Z,18.36
2019-04-02T11:30:09.216Z,18.57
2019-04-02T11:32:36.589Z,18.40
2019-04-02T11:35:05.900Z,18.55
2019-04-02T11:37:33.259Z,18.11
2019-04-02T11:40:00.652Z,18.29
2019-04-02T11:42:27.970Z,18.33
2019-04-02T11:44:55.339Z,18.34
2019-04-02T11:47:22.851Z,18.36
2019-04-02T11:49:50.249Z,18.13
2019-04-02T11:52:17.627Z,18.34
2019-04-02T11:54:44.955Z,18.50
2019-04-02T11:57:12.410Z,18.33
2019-04-02T11:59:39.867Z,18.45
2019-04-02T12:02:09.104Z,18.42
2019-04-02T12:04:36.505Z,18.42
2019-04-02T12:07:03.977Z,18.53
2019-04-02T12:09:43.945Z,18.43
2019-04-02T12:12:00.631Z,18.65
2019-04-02T12:14:27.968Z,18.25
2019-04-02T12:16:55.358Z,18.67
2019-04-02T12:19:22.694Z,18.99
2019-04-02T12:21:50.082Z,18.91
2019-04-02T12:24:19.804Z,19.32
2019-04-02T12:26:46.677Z,18.80
2019-04-02T12:29:14.017Z,18.95
2019-04-02T12:31:41.414Z,19.01
2019-04-02T12:34:11.047Z,18.61
2019-04-02T12:36:38.009Z,19.05
2019-04-02T12:39:11.606Z,18.87
2019-04-02T12:41:39.470Z,19.13
2019-04-02T12:44:07.644Z,19.33
2019-04-02T12:46:35.025Z,18.77
2019-04-02T12:49:03.603Z,18.74
2019-04-02T12:51:31.621Z,18.50
2019-04-02T12:54:00.852Z,18.48
2019-04-02T12:56:28.353Z,18.45
2019-04-02T12:58:55.678Z,18.74
2019-04-02T13:01:23.163Z,18.49
2019-04-02T13:03:50.546Z,18.79
2019-04-02T13:06:17.934Z,18.82
2019-04-02T13:08:45.332Z,19.66
2019-04-02T13:11:14.083Z,19.73
2019-04-02T13:13:41.737Z,19.68
2019-04-02T13:16:09.171Z,19.56
2019-04-02T13:18:36.649Z,19.18
2019-04-02T13:21:05.490Z,19.67
2019-04-02T13:23:33.054Z,19.48
2019-04-02T13:26:00.438Z,19.56
2019-04-02T13:28:30.375Z,19.32
2019-04-02T13:30:57.187Z,19.57
2019-04-02T13:33:24.583Z,19.64
2019-04-02T13:35:51.965Z,19.75
2019-04-02T13:38:19.365Z,19.54
2019-04-02T13:40:46.726Z,19.88
2019-04-02T13:43:14.123Z,19.78
2019-04-02T13:45:41.529Z,19.46
2019-04-02T13:48:08.928Z,19.76
2019-04-02T13:50:36.331Z,19.67
2019-04-02T13:53:03.812Z,19.46
2019-04-02T13:55:31.208Z,19.31
2019-04-02T13:57:59.297Z,19.40
2019-04-02T14:01:11.844Z,19.69
2019-04-02T14:03:40.509Z,19.64
2019-04-02T14:06:08.082Z,19.57
2019-04-02T14:08:35.470Z,19.50
2019-04-02T14:11:03.052Z,19.50
2019-04-02T14:13:30.647Z,19.49
2019-04-02T14:15:58.052Z,19.61
2019-04-02T14:18:25.609Z,19.51
2019-04-02T14:20:53.208Z,19.44
2019-04-02T14:23:20.762Z,19.48
2019-04-02T14:25:48.281Z,19.40
2019-04-02T14:28:17.189Z,19.76
2019-04-02T14:30:45.392Z,19.81
2019-04-02T14:33:13.177Z,20.15
2019-04-02T14:35:40.910Z,20.23
2019-04-02T14:38:08.588Z,20.52
2019-04-02T14:40:36.422Z,20.21
2019-04-02T14:43:04.066Z,20.24
2019-04-02T14:45:31.805Z,20.75
2019-04-02T14:47:59.696Z,20.66
2019-04-02T14:50:30.851Z,20.44
2019-04-02T14:52:56.958Z,20.37
2019-04-02T14:55:24.758Z,19.99
2019-04-02T14:57:52.455Z,20.13
2019-04-02T15:00:20.029Z,19.83
2019-04-02T15:02:47.608Z,19.90
2019-04-02T15:05:15.316Z,20.39
2019-04-02T15:07:42.849Z,20.52
2019-04-02T15:10:10.520Z,20.49
2019-04-02T15:12:38.068Z,20.70
2019-04-02T15:15:05.930Z,20.48
2019-04-02T15:17:33.728Z,20.35
2019-04-02T15:20:01.415Z,20.32
2019-04-02T15:22:28.989Z,20.12
2019-04-02T15:24:56.673Z,20.13
2019-04-02T15:27:24.628Z,20.70
2019-04-02T15:29:52.499Z,20.50
2019-04-02T15:32:20.163Z,20.81
2019-04-02T15:34:48.007Z,20.83
2019-04-02T15:37:15.733Z,20.32
2019-04-02T15:39:44.281Z,20.14
2019-04-02T15:42:11.950Z,20.54
2019-04-02T15:44:39.686Z,20.26
2019-04-02T15:47:07.493Z,20.16
2019-04-02T15:49:35.275Z,20.33
2019-04-02T15:52:06.962Z,20.25
2019-04-02T15:54:34.931Z,19.96
2019-04-02T15:57:02.654Z,19.68
2019-04-02T15:59:30.400Z,19.46
2019-04-02T16:02:01.911Z,19.22
2019-04-02T16:04:28.755Z,19.22
2019-04-02T16:06:56.635Z,19.13
2019-04-02T16:09:24.406Z,19.08
2019-04-02T16:11:52.370Z,18.99
2019-04-02T16:14:20.311Z,18.91
2019-04-02T16:16:48.206Z,18.49
2019-04-02T16:19:16.008Z,17.72
2019-04-02T16:21:43.932Z,18.07
2019-04-02T16:24:11.698Z,17.85
2019-04-02T16:26:39.453Z,17.39
2019-04-02T16:29:07.359Z,17.91
2019-04-02T16:31:35.175Z,17.26
2019-04-02T16:34:03.210Z,17.10
2019-04-02T16:36:31.160Z,17.82
2019-04-02T16:38:58.991Z,17.76
2019-04-02T16:41:27.430Z,17.83
2019-04-02T16:43:55.308Z,17.28
2019-04-02T16:46:23.216Z,17.31
2019-04-02T16:48:51.628Z,17.52
2019-04-02T16:51:19.486Z,17.25
2019-04-02T16:53:47.328Z,17.26
2019-04-02T16:56:15.289Z,17.55
2019-04-02T16:58:43.213Z,17.88
2019-04-02T17:01:11.048Z,17.45
2019-04-02T17:03:48.239Z,17.30
2019-04-02T17:06:09.388Z,17.49
2019-04-02T17:08:37.348Z,17.46
2019-04-02T17:11:05.311Z,17.21
2019-04-02T17:13:34.530Z,17.33
2019-04-02T17:16:02.777Z,16.77
2019-04-02T17:18:30.664Z,16.25
2019-04-02T17:20:58.580Z,16.16
2019-04-02T17:23:26.571Z,15.72
2019-04-02T17:25:54.874Z,15.77
2019-04-02T17:28:23.666Z,15.47
2019-04-02T17:30:52.883Z,16.34
2019-04-02T17:33:21.960Z,15.05
2019-04-02T17:35:50.131Z,15.32
2019-04-02T17:38:18.237Z,15.72
2019-04-02T17:40:46.195Z,16.05
2019-04-02T17:43:14.052Z,15.79
2019-04-02T17:45:42.085Z,14.82
2019-04-02T17:48:10.122Z,14.80
2019-04-02T17:50:38.116Z,14.38
2019-04-02T17:53:08.787Z,14.20
2019-04-02T17:55:36.306Z,13.81
2019-04-02T17:58:04.345Z,14.27
2019-04-02T18:00:32.447Z,14.00
2019-04-02T18:03:00.525Z,13.69
2019-04-02T18:05:28.547Z,13.86
2019-04-02T18:07:56.643Z,13.91
2019-04-02T18:10:26.202Z,13.85
2019-04-02T18:12:54.612Z,13.51
2019-04-02T18:15:22.615Z,13.41
2019-04-02T18:17:50.572Z,13.34
2019-04-02T18:20:18.511Z,13.37
2019-04-02T18:22:46.458Z,13.25
2019-04-02T18:25:14.523Z,13.42
2019-04-02T18:27:43.974Z,13.19
2019-04-02T18:30:14.036Z,13.68
2019-04-02T18:32:42.696Z,13.18
2019-04-02T18:35:10.728Z,13.47
2019-04-02T18:37:38.738Z,13.46
2019-04-02T18:40:07.775Z,13.29
2019-04-02T18:42:36.772Z,12.99
2019-04-02T18:45:05.851Z,13.72
2019-04-02T18:47:35.385Z,13.80
2019-04-02T18:50:03.703Z,13.40
2019-04-02T18:52:31.790Z,13.74
2019-04-02T18:54:59.881Z,13.28
2019-04-02T18:57:27.887Z,14.33
2019-04-02T18:59:58.234Z,13.90
2019-04-02T19:02:29.261Z,14.63
2019-04-02T19:04:56.333Z,13.91
2019-04-02T19:07:24.832Z,13.33
2019-04-02T19:09:52.939Z,13.57
2019-04-02T19:12:20.863Z,13.54
2019-04-02T19:18:12.804Z,13.16
2019-04-02T19:20:41.077Z,13.39
2019-04-02T19:23:10.389Z,13.11
2019-04-02T19:25:38.854Z,13.44
2019-04-02T19:28:09.971Z,13.29
2019-04-02T19:30:38.583Z,12.91
2019-04-02T19:33:09.858Z,13.26
2019-04-02T19:35:37.955Z,13.41
2019-04-02T19:38:06.083Z,13.56
2019-04-02T19:40:34.647Z,13.30
2019-04-02T19:43:07.824Z,13.16
2019-04-02T19:45:32.569Z,13.00
2019-04-02T19:48:03.336Z,13.35
2019-04-02T19:50:30.486Z,13.17
2019-04-02T19:52:59.006Z,13.36
2019-04-02T19:55:26.992Z,12.93
2019-04-02T19:57:54.999Z,12.41
2019-04-02T20:00:23.051Z,12.38
2019-04-02T20:02:50.875Z,12.49
2019-04-02T20:05:19.803Z,12.76
2019-04-02T20:07:49.346Z,13.12
2019-04-02T20:10:17.511Z,12.63
2019-04-02T20:12:45.499Z,12.52
2019-04-02T20:15:13.609Z,12.79
2019-04-02T20:17:41.630Z,12.29
2019-04-02T20:20:10.027Z,12.05
2019-04-02T20:22:37.965Z,12.02
2019-04-02T20:25:06.131Z,12.18
2019-04-02T20:27:34.054Z,11.88
2019-04-02T20:30:04.900Z,12.83
2019-04-02T20:32:32.729Z,12.23
2019-04-02T20:35:00.709Z,12.22
2019-04-02T20:37:30.507Z,12.17
2019-04-02T20:39:59.015Z,12.35
2019-04-02T20:42:28.969Z,12.25
2019-04-02T20:44:57.287Z,12.31
2019-04-02T20:47:24.956Z,12.32
2019-04-02T20:49:52.906Z,12.53
2019-04-02T20:52:20.846Z,12.25
2019-04-02T20:54:48.810Z,12.30
2019-04-02T20:57:16.645Z,12.18
2019-04-02T20:59:46.721Z,12.05
2019-04-02T21:02:14.665Z,11.80
2019-04-02T21:04:52.046Z,11.97
2019-04-02T21:07:12.315Z,11.94
2019-04-02T21:09:39.943Z,12.17
2019-04-02T21:12:11.530Z,11.80
2019-04-02T21:14:37.406Z,11.68
2019-04-02T21:17:04.928Z,11.85
2019-04-02T21:19:32.409Z,11.83
2019-04-02T21:22:00.175Z,12.15
2019-04-02T21:24:27.641Z,12.16
2019-04-02T21:26:55.026Z,11.70
2019-04-02T21:29:23.630Z,11.47
2019-04-02T21:31:51.791Z,11.54
2019-04-02T21:34:19.222Z,11.85
2019-04-02T21:36:48.230Z,11.69
2019-04-02T21:39:17.048Z,11.78
2019-04-02T21:41:45.030Z,11.30
2019-04-02T21:44:12.591Z,11.13
2019-04-02T21:46:39.971Z,11.32
2019-04-02T21:49:07.586Z,11.14
2019-04-02T21:51:35.586Z,11.17
2019-04-02T21:54:04.426Z,10.97
2019-04-02T21:56:31.769Z,11.01
2019-04-02T21:58:59.161Z,10.89
2019-04-02T22:01:26.710Z,11.21
2019-04-02T22:03:54.119Z,11.14
2019-04-02T22:06:21.539Z,10.89
2019-04-02T22:08:48.909Z,10.85
2019-04-02T22:11:16.291Z,11.10
2019-04-02T22:13:43.626Z,11.06
2019-04-02T22:16:12.834Z,11.10
2019-04-02T22:18:41.557Z,11.15
2019-04-02T22:21:09.645Z,11.15
2019-04-02T22:23:37.012Z,10.97
2019-04-02T22:26:04.613Z,11.24
2019-04-02T22:28:31.990Z,10.96
2019-04-02T22:30:59.398Z,10.94
2019-04-02T22:33:36.324Z,10.75
2019-04-02T22:35:56.111Z,10.61
2019-04-02T22:38:24.748Z,11.01
2019-04-02T22:40:53.950Z,10.92
2019-04-02T22:43:23.709Z,10.77
2019-04-02T22:45:50.904Z,10.89
2019-04-02T22:48:18.303Z,10.78
2019-04-02T22:50:47.646Z,10.76
2019-04-02T22:53:15.007Z,10.81
2019-04-02T22:55:42.366Z,10.91
2019-04-02T22:58:09.796Z,10.71
2019-04-02T23:00:37.191Z,10.77
2019-04-02T23:03:04.591Z,10.59
2019-04-02T23:05:32.868Z,10.75
2019-04-02T23:08:03.231Z,10.64
2019-04-02T23:10:30.208Z,10.62
2019-04-02T23:12:57.622Z,10.69
2019-04-02T23:15:25.012Z,10.70
2019-04-02T23:17:55.688Z,10.71
2019-04-02T23:20:21.753Z,10.77
2019-04-02T23:22:49.091Z,10.62
2019-04-02T23:25:17.745Z,10.62
2019-04-02T23:27:46.977Z,10.69
2019-04-02T23:30:15.015Z,10.71
2019-04-02T23:32:42.431Z,10.69
2019-04-02T23:35:09.809Z,10.61
2019-04-02T23:37:37.251Z,10.46
2019-04-02T23:40:06.779Z,10.45
2019-04-02T23:42:34.189Z,10.53
2019-04-02T23:45:03.027Z,10.29
2019-04-02T23:47:31.763Z,10.56
2019-04-02T23:50:00.092Z,10.58
2019-04-02T23:52:27.470Z,10.65
2019-04-02T23:54:54.831Z,10.59
2019-04-02T23:57:22.231Z,10.39
2019-04-02T23:59:49.595Z,10.51
